sensor_id;sensor_type;location;lat;lon;timestamp;temperature;humidity
49218;DHT22;35045;51.194;7.268;2023-05-15T00:00:14;14.90;99.90
49218;DHT22;35045;51.194;7.268;2023-05-15T00:02:40;14.90;99.90
49218;DHT22;35045;51.194;7.268;2023-05-15T00:05:08;14.90;99.90
49218;DHT22;35045;51.194;7.268;2023-05-15T00:07:34;14.80;99.90
49218;DHT22;35045;51.194;7.268;2023-05-15T00:10:01;14.80;99.90
49218;DHT22;35045;51.194;7.268;2023-05-15T00:12:27;14.70;99.90
49218;DHT22;35045;51.194;7.268;2023-05-15T00:14:53;14.70;99.90
49218;DHT22;35045;51.194;7.268;2023-05-15T00:17:20;14.60;99.90
49218;DHT22;35045;51.194;7.268;2023-05-15T00:19:46;14.50;99.90
49218;DHT22;35045;51.194;7.268;2023-05-15T00:22:12;14.40;99.90
49218;DHT22;35045;51.194;7.268;2023-05-15T00:24:38;14.30;99.90
49218;DHT22;35045;51.194;7.268;2023-05-15T00:27:04;14.20;99.90
49218;DHT22;35045;51.194;7.268;2023-05-15T00:29:31;14.20;99.90
49218;DHT22;35045;51.194;7.268;2023-05-15T00:31:57;14.20;99.90
49218;DHT22;35045;51.194;7.268;2023-05-15T00:34:23;14.20;99.90
49218;DHT22;35045;51.194;7.268;2023-05-15T00:36:49;14.10;99.90
49218;DHT22;35045;51.194;7.268;2023-05-15T00:39:16;14.10;99.90
49218;DHT22;35045;51.194;7.268;2023-05-15T00:41:43;14.00;99.90
49218;DHT22;35045;51.194;7.268;2023-05-15T00:44:10;13.90;99.90
49218;DHT22;35045;51.194;7.268;2023-05-15T00:46:37;13.90;99.90
49218;DHT22;35045;51.194;7.268;2023-05-15T00:49:04;13.90;99.90
49218;DHT22;35045;51.194;7.268;2023-05-15T00:51:32;13.90;99.90
49218;DHT22;35045;51.194;7.268;2023-05-15T00:53:58;13.90;99.90
49218;DHT22;35045;51.194;7.268;2023-05-15T00:56:24;13.80;99.90
49218;DHT22;35045;51.194;7.268;2023-05-15T00:58:53;13.80;99.90
49218;DHT22;35045;51.194;7.268;2023-05-15T01:01:20;13.70;99.90
49218;DHT22;35045;51.194;7.268;2023-05-15T01:03:46;13.60;99.90
49218;DHT22;35045;51.194;7.268;2023-05-15T01:06:12;13.50;99.90
49218;DHT22;35045;51.194;7.268;2023-05-15T01:08:44;13.50;99.90
49218;DHT22;35045;51.194;7.268;2023-05-15T01:11:12;13.40;99.90
49218;DHT22;35045;51.194;7.268;2023-05-15T01:13:39;13.40;99.90
49218;DHT22;35045;51.194;7.268;2023-05-15T01:16:06;13.40;99.90
49218;DHT22;35045;51.194;7.268;2023-05-15T01:18:33;13.40;99.90
49218;DHT22;35045;51.194;7.268;2023-05-15T01:21:14;13.40;99.90
49218;DHT22;35045;51.194;7.268;2023-05-15T01:30:02;13.30;99.90
49218;DHT22;35045;51.194;7.268;2023-05-15T01:35:13;13.20;99.90
49218;DHT22;35045;51.194;7.268;2023-05-15T01:37:43;13.20;99.90
49218;DHT22;35045;51.194;7.268;2023-05-15T01:40:14;13.20;99.90
49218;DHT22;35045;51.194;7.268;2023-05-15T01:42:45;13.20;99.90
49218;DHT22;35045;51.194;7.268;2023-05-15T01:45:16;13.20;99.90
49218;DHT22;35045;51.194;7.268;2023-05-15T01:47:44;13.20;99.90
49218;DHT22;35045;51.194;7.268;2023-05-15T01:50:14;13.10;99.90
49218;DHT22;35045;51.194;7.268;2023-05-15T01:52:53;13.20;99.90
49218;DHT22;35045;51.194;7.268;2023-05-15T01:55:20;13.10;99.90
49218;DHT22;35045;51.194;7.268;2023-05-15T01:57:48;13.10;99.90
49218;DHT22;35045;51.194;7.268;2023-05-15T02:00:16;13.00;99.90
49218;DHT22;35045;51.194;7.268;2023-05-15T02:02:43;12.90;99.90
49218;DHT22;35045;51.194;7.268;2023-05-15T02:05:11;12.90;99.90
49218;DHT22;35045;51.194;7.268;2023-05-15T02:07:39;12.90;99.90
49218;DHT22;35045;51.194;7.268;2023-05-15T02:10:07;12.90;99.90
49218;DHT22;35045;51.194;7.268;2023-05-15T02:12:34;12.90;99.90
49218;DHT22;35045;51.194;7.268;2023-05-15T02:15:02;12.90;99.90
49218;DHT22;35045;51.194;7.268;2023-05-15T02:17:29;12.90;99.90
49218;DHT22;35045;51.194;7.268;2023-05-15T02:19:55;12.80;99.90
49218;DHT22;35045;51.194;7.268;2023-05-15T02:22:22;12.80;99.90
49218;DHT22;35045;51.194;7.268;2023-05-15T02:24:48;12.80;99.90
49218;DHT22;35045;51.194;7.268;2023-05-15T02:27:25;12.70;99.90
49218;DHT22;35045;51.194;7.268;2023-05-15T02:35:42;12.70;99.90
49218;DHT22;35045;51.194;7.268;2023-05-15T02:38:15;12.70;99.90
49218;DHT22;35045;51.194;7.268;2023-05-15T02:40:43;12.60;99.90
49218;DHT22;35045;51.194;7.268;2023-05-15T02:43:11;12.60;99.90
49218;DHT22;35045;51.194;7.268;2023-05-15T02:45:38;12.60;99.90
49218;DHT22;35045;51.194;7.268;2023-05-15T02:48:05;12.60;99.90
49218;DHT22;35045;51.194;7.268;2023-05-15T02:50:33;12.50;99.90
49218;DHT22;35045;51.194;7.268;2023-05-15T02:53:03;12.50;99.90
49218;DHT22;35045;51.194;7.268;2023-05-15T02:55:30;12.50;99.90
49218;DHT22;35045;51.194;7.268;2023-05-15T02:57:57;12.50;99.90
49218;DHT22;35045;51.194;7.268;2023-05-15T03:00:23;12.50;99.90
49218;DHT22;35045;51.194;7.268;2023-05-15T03:02:49;12.50;99.90
49218;DHT22;35045;51.194;7.268;2023-05-15T03:05:16;12.50;99.90
49218;DHT22;35045;51.194;7.268;2023-05-15T03:07:42;12.40;99.90
49218;DHT22;35045;51.194;7.268;2023-05-15T03:10:08;12.40;99.90
49218;DHT22;35045;51.194;7.268;2023-05-15T03:12:34;12.40;99.90
49218;DHT22;35045;51.194;7.268;2023-05-15T03:15:01;12.40;99.90
49218;DHT22;35045;51.194;7.268;2023-05-15T03:17:27;12.30;99.90
49218;DHT22;35045;51.194;7.268;2023-05-15T03:19:53;12.10;99.90
49218;DHT22;35045;51.194;7.268;2023-05-15T03:22:19;12.10;99.90
49218;DHT22;35045;51.194;7.268;2023-05-15T03:24:45;12.10;99.90
49218;DHT22;35045;51.194;7.268;2023-05-15T03:27:11;12.10;99.90
49218;DHT22;35045;51.194;7.268;2023-05-15T03:29:38;12.20;99.90
49218;DHT22;35045;51.194;7.268;2023-05-15T03:32:04;12.20;99.90
49218;DHT22;35045;51.194;7.268;2023-05-15T03:34:30;12.20;99.90
49218;DHT22;35045;51.194;7.268;2023-05-15T03:36:57;12.10;99.90
49218;DHT22;35045;51.194;7.268;2023-05-15T03:39:23;12.20;99.90
49218;DHT22;35045;51.194;7.268;2023-05-15T03:41:49;12.20;99.90
49218;DHT22;35045;51.194;7.268;2023-05-15T03:44:15;12.30;99.90
49218;DHT22;35045;51.194;7.268;2023-05-15T03:46:41;12.30;99.90
49218;DHT22;35045;51.194;7.268;2023-05-15T03:49:07;12.40;99.90
49218;DHT22;35045;51.194;7.268;2023-05-15T03:51:34;12.50;99.90
49218;DHT22;35045;51.194;7.268;2023-05-15T03:54:00;12.60;99.90
49218;DHT22;35045;51.194;7.268;2023-05-15T03:56:26;12.60;99.90
49218;DHT22;35045;51.194;7.268;2023-05-15T03:58:52;12.60;99.90
49218;DHT22;35045;51.194;7.268;2023-05-15T04:01:18;12.70;99.90
49218;DHT22;35045;51.194;7.268;2023-05-15T04:03:44;12.70;99.90
49218;DHT22;35045;51.194;7.268;2023-05-15T04:06:11;12.70;99.90
49218;DHT22;35045;51.194;7.268;2023-05-15T04:08:37;12.70;99.90
49218;DHT22;35045;51.194;7.268;2023-05-15T04:11:04;12.80;99.90
49218;DHT22;35045;51.194;7.268;2023-05-15T04:13:30;12.90;99.90
49218;DHT22;35045;51.194;7.268;2023-05-15T04:15:57;12.90;99.90
49218;DHT22;35045;51.194;7.268;2023-05-15T04:18:24;13.00;99.90
49218;DHT22;35045;51.194;7.268;2023-05-15T04:20:51;13.00;99.90
49218;DHT22;35045;51.194;7.268;2023-05-15T04:23:17;13.00;99.90
49218;DHT22;35045;51.194;7.268;2023-05-15T04:25:43;13.00;99.90
49218;DHT22;35045;51.194;7.268;2023-05-15T04:28:12;13.00;99.90
49218;DHT22;35045;51.194;7.268;2023-05-15T04:30:38;13.00;99.90
49218;DHT22;35045;51.194;7.268;2023-05-15T04:33:04;13.00;99.90
49218;DHT22;35045;51.194;7.268;2023-05-15T04:35:31;13.00;99.90
49218;DHT22;35045;51.194;7.268;2023-05-15T04:37:57;13.00;99.90
49218;DHT22;35045;51.194;7.268;2023-05-15T04:40:23;13.00;99.90
49218;DHT22;35045;51.194;7.268;2023-05-15T04:42:49;13.00;99.90
49218;DHT22;35045;51.194;7.268;2023-05-15T04:45:15;13.10;99.90
49218;DHT22;35045;51.194;7.268;2023-05-15T04:47:41;13.00;99.90
49218;DHT22;35045;51.194;7.268;2023-05-15T04:50:08;13.00;99.90
49218;DHT22;35045;51.194;7.268;2023-05-15T04:52:34;13.10;99.90
49218;DHT22;35045;51.194;7.268;2023-05-15T04:55:00;13.00;99.90
49218;DHT22;35045;51.194;7.268;2023-05-15T04:57:27;13.00;99.90
49218;DHT22;35045;51.194;7.268;2023-05-15T04:59:53;13.00;99.90
49218;DHT22;35045;51.194;7.268;2023-05-15T05:02:20;12.90;99.90
49218;DHT22;35045;51.194;7.268;2023-05-15T05:05:06;13.00;99.90
49218;DHT22;35045;51.194;7.268;2023-05-15T05:07:33;12.90;99.90
49218;DHT22;35045;51.194;7.268;2023-05-15T05:10:00;12.80;99.90
49218;DHT22;35045;51.194;7.268;2023-05-15T05:12:26;12.80;99.90
49218;DHT22;35045;51.194;7.268;2023-05-15T05:14:53;12.80;99.90
49218;DHT22;35045;51.194;7.268;2023-05-15T05:17:20;12.80;99.90
49218;DHT22;35045;51.194;7.268;2023-05-15T05:19:46;12.80;99.90
49218;DHT22;35045;51.194;7.268;2023-05-15T05:22:12;12.70;99.90
49218;DHT22;35045;51.194;7.268;2023-05-15T05:24:38;12.80;99.90
49218;DHT22;35045;51.194;7.268;2023-05-15T05:27:05;12.90;99.90
49218;DHT22;35045;51.194;7.268;2023-05-15T05:29:31;12.80;99.90
49218;DHT22;35045;51.194;7.268;2023-05-15T05:31:58;12.70;99.90
49218;DHT22;35045;51.194;7.268;2023-05-15T05:34:24;12.80;99.90
49218;DHT22;35045;51.194;7.268;2023-05-15T05:36:50;12.80;99.90
49218;DHT22;35045;51.194;7.268;2023-05-15T05:39:17;12.90;99.90
49218;DHT22;35045;51.194;7.268;2023-05-15T05:41:43;12.90;99.90
49218;DHT22;35045;51.194;7.268;2023-05-15T05:44:09;13.00;99.90
49218;DHT22;35045;51.194;7.268;2023-05-15T05:46:36;13.10;99.90
49218;DHT22;35045;51.194;7.268;2023-05-15T05:49:02;13.10;99.90
49218;DHT22;35045;51.194;7.268;2023-05-15T05:51:28;13.10;99.90
49218;DHT22;35045;51.194;7.268;2023-05-15T05:53:54;13.10;99.90
49218;DHT22;35045;51.194;7.268;2023-05-15T05:56:21;13.00;99.90
49218;DHT22;35045;51.194;7.268;2023-05-15T05:58:47;13.00;99.90
49218;DHT22;35045;51.194;7.268;2023-05-15T06:01:13;13.00;99.90
49218;DHT22;35045;51.194;7.268;2023-05-15T06:03:41;12.90;99.90
49218;DHT22;35045;51.194;7.268;2023-05-15T06:06:08;12.80;99.90
49218;DHT22;35045;51.194;7.268;2023-05-15T06:08:34;12.80;99.90
49218;DHT22;35045;51.194;7.268;2023-05-15T06:11:00;12.80;99.90
49218;DHT22;35045;51.194;7.268;2023-05-15T06:13:26;12.80;99.90
49218;DHT22;35045;51.194;7.268;2023-05-15T06:15:52;12.70;99.90
49218;DHT22;35045;51.194;7.268;2023-05-15T06:18:18;12.80;99.90
49218;DHT22;35045;51.194;7.268;2023-05-15T06:20:45;12.70;99.90
49218;DHT22;35045;51.194;7.268;2023-05-15T06:23:11;12.70;99.90
49218;DHT22;35045;51.194;7.268;2023-05-15T06:25:38;12.70;99.90
49218;DHT22;35045;51.194;7.268;2023-05-15T06:28:05;12.80;99.90
49218;DHT22;35045;51.194;7.268;2023-05-15T06:30:31;12.90;99.90
49218;DHT22;35045;51.194;7.268;2023-05-15T06:32:57;13.00;99.90
49218;DHT22;35045;51.194;7.268;2023-05-15T06:35:23;13.20;99.90
49218;DHT22;35045;51.194;7.268;2023-05-15T06:37:49;13.20;99.90
49218;DHT22;35045;51.194;7.268;2023-05-15T06:40:16;13.10;99.90
49218;DHT22;35045;51.194;7.268;2023-05-15T06:42:42;13.10;99.90
49218;DHT22;35045;51.194;7.268;2023-05-15T06:45:09;13.20;99.90
49218;DHT22;35045;51.194;7.268;2023-05-15T06:47:35;13.30;99.90
49218;DHT22;35045;51.194;7.268;2023-05-15T06:50:01;13.30;99.90
49218;DHT22;35045;51.194;7.268;2023-05-15T06:52:27;13.30;99.90
49218;DHT22;35045;51.194;7.268;2023-05-15T06:54:53;13.30;99.90
49218;DHT22;35045;51.194;7.268;2023-05-15T06:57:20;13.30;99.90
49218;DHT22;35045;51.194;7.268;2023-05-15T06:59:46;13.50;99.90
49218;DHT22;35045;51.194;7.268;2023-05-15T07:02:12;13.50;99.90
49218;DHT22;35045;51.194;7.268;2023-05-15T07:04:38;13.60;99.90
49218;DHT22;35045;51.194;7.268;2023-05-15T07:07:04;13.60;99.90
49218;DHT22;35045;51.194;7.268;2023-05-15T07:09:31;13.70;99.90
49218;DHT22;35045;51.194;7.268;2023-05-15T07:11:59;13.80;99.90
49218;DHT22;35045;51.194;7.268;2023-05-15T07:14:25;13.80;99.90
49218;DHT22;35045;51.194;7.268;2023-05-15T07:16:52;13.70;99.90
49218;DHT22;35045;51.194;7.268;2023-05-15T07:19:18;13.80;99.90
49218;DHT22;35045;51.194;7.268;2023-05-15T07:21:46;13.80;99.90
49218;DHT22;35045;51.194;7.268;2023-05-15T07:24:12;13.90;99.90
49218;DHT22;35045;51.194;7.268;2023-05-15T07:26:38;13.90;99.90
49218;DHT22;35045;51.194;7.268;2023-05-15T07:29:08;14.00;99.90
49218;DHT22;35045;51.194;7.268;2023-05-15T07:31:35;14.10;99.90
49218;DHT22;35045;51.194;7.268;2023-05-15T07:34:03;14.00;99.90
49218;DHT22;35045;51.194;7.268;2023-05-15T07:36:29;13.90;99.90
49218;DHT22;35045;51.194;7.268;2023-05-15T07:38:55;13.90;99.90
49218;DHT22;35045;51.194;7.268;2023-05-15T07:41:21;13.80;99.90
49218;DHT22;35045;51.194;7.268;2023-05-15T07:43:48;13.80;99.90
49218;DHT22;35045;51.194;7.268;2023-05-15T07:46:14;13.80;99.90
49218;DHT22;35045;51.194;7.268;2023-05-15T07:48:40;13.80;99.90
49218;DHT22;35045;51.194;7.268;2023-05-15T07:51:06;13.80;99.90
49218;DHT22;35045;51.194;7.268;2023-05-15T07:53:32;13.90;99.90
49218;DHT22;35045;51.194;7.268;2023-05-15T07:55:58;13.80;99.90
49218;DHT22;35045;51.194;7.268;2023-05-15T07:58:24;13.80;99.90
49218;DHT22;35045;51.194;7.268;2023-05-15T08:00:51;13.70;99.90
49218;DHT22;35045;51.194;7.268;2023-05-15T08:03:17;13.90;99.90
49218;DHT22;35045;51.194;7.268;2023-05-15T08:05:43;14.10;99.90
49218;DHT22;35045;51.194;7.268;2023-05-15T08:08:09;14.10;99.90
49218;DHT22;35045;51.194;7.268;2023-05-15T08:10:35;14.00;99.90
49218;DHT22;35045;51.194;7.268;2023-05-15T08:13:01;13.90;99.90
49218;DHT22;35045;51.194;7.268;2023-05-15T08:15:27;13.90;99.90
49218;DHT22;35045;51.194;7.268;2023-05-15T08:17:54;13.80;99.90
49218;DHT22;35045;51.194;7.268;2023-05-15T08:20:20;13.70;99.90
49218;DHT22;35045;51.194;7.268;2023-05-15T08:22:46;13.60;99.90
49218;DHT22;35045;51.194;7.268;2023-05-15T08:25:12;13.60;99.90
49218;DHT22;35045;51.194;7.268;2023-05-15T08:27:38;13.50;99.90
49218;DHT22;35045;51.194;7.268;2023-05-15T08:30:05;13.60;99.90
49218;DHT22;35045;51.194;7.268;2023-05-15T08:32:31;13.70;99.90
49218;DHT22;35045;51.194;7.268;2023-05-15T08:34:59;13.70;99.90
49218;DHT22;35045;51.194;7.268;2023-05-15T08:37:25;13.70;99.90
49218;DHT22;35045;51.194;7.268;2023-05-15T08:39:51;13.80;99.90
49218;DHT22;35045;51.194;7.268;2023-05-15T08:42:20;13.90;99.90
49218;DHT22;35045;51.194;7.268;2023-05-15T08:44:49;14.20;99.90
49218;DHT22;35045;51.194;7.268;2023-05-15T08:47:15;14.40;99.90
49218;DHT22;35045;51.194;7.268;2023-05-15T08:50:08;14.50;99.90
49218;DHT22;35045;51.194;7.268;2023-05-15T08:52:37;14.50;99.90
49218;DHT22;35045;51.194;7.268;2023-05-15T08:55:07;14.60;99.90
49218;DHT22;35045;51.194;7.268;2023-05-15T08:57:33;14.70;99.90
49218;DHT22;35045;51.194;7.268;2023-05-15T09:00:02;14.90;99.90
49218;DHT22;35045;51.194;7.268;2023-05-15T09:02:32;14.90;99.90
49218;DHT22;35045;51.194;7.268;2023-05-15T09:04:58;14.90;99.90
49218;DHT22;35045;51.194;7.268;2023-05-15T09:07:24;14.90;99.90
49218;DHT22;35045;51.194;7.268;2023-05-15T09:09:51;15.10;99.90
49218;DHT22;35045;51.194;7.268;2023-05-15T09:12:18;15.20;99.90
49218;DHT22;35045;51.194;7.268;2023-05-15T09:14:45;15.40;99.90
49218;DHT22;35045;51.194;7.268;2023-05-15T09:17:11;15.70;99.90
49218;DHT22;35045;51.194;7.268;2023-05-15T09:19:38;15.90;99.90
49218;DHT22;35045;51.194;7.268;2023-05-15T09:22:18;15.70;99.90
49218;DHT22;35045;51.194;7.268;2023-05-15T09:24:49;15.60;99.90
49218;DHT22;35045;51.194;7.268;2023-05-15T09:27:19;15.60;99.90
49218;DHT22;35045;51.194;7.268;2023-05-15T09:29:45;15.60;99.90
49218;DHT22;35045;51.194;7.268;2023-05-15T09:32:13;15.90;99.90
49218;DHT22;35045;51.194;7.268;2023-05-15T09:34:41;16.30;99.90
49218;DHT22;35045;51.194;7.268;2023-05-15T09:37:10;16.20;99.90
49218;DHT22;35045;51.194;7.268;2023-05-15T09:39:42;16.00;99.90
49218;DHT22;35045;51.194;7.268;2023-05-15T09:42:10;15.80;99.90
49218;DHT22;35045;51.194;7.268;2023-05-15T09:44:43;15.80;99.90
49218;DHT22;35045;51.194;7.268;2023-05-15T09:47:11;16.00;99.90
49218;DHT22;35045;51.194;7.268;2023-05-15T09:49:38;16.20;99.90
49218;DHT22;35045;51.194;7.268;2023-05-15T09:52:07;16.30;99.90
49218;DHT22;35045;51.194;7.268;2023-05-15T09:54:35;16.40;99.90
49218;DHT22;35045;51.194;7.268;2023-05-15T09:57:12;16.60;99.90
49218;DHT22;35045;51.194;7.268;2023-05-15T09:59:46;16.50;99.90
49218;DHT22;35045;51.194;7.268;2023-05-15T10:02:21;16.30;99.90
49218;DHT22;35045;51.194;7.268;2023-05-15T10:04:53;16.30;99.90
49218;DHT22;35045;51.194;7.268;2023-05-15T10:07:27;16.40;99.90
49218;DHT22;35045;51.194;7.268;2023-05-15T10:09:54;16.50;99.90
49218;DHT22;35045;51.194;7.268;2023-05-15T10:12:22;16.70;99.90
49218;DHT22;35045;51.194;7.268;2023-05-15T10:14:49;16.70;99.90
49218;DHT22;35045;51.194;7.268;2023-05-15T10:17:17;16.70;99.90
49218;DHT22;35045;51.194;7.268;2023-05-15T10:19:46;16.60;99.90
49218;DHT22;35045;51.194;7.268;2023-05-15T10:22:22;16.70;99.90
49218;DHT22;35045;51.194;7.268;2023-05-15T10:27:49;16.90;99.90
49218;DHT22;35045;51.194;7.268;2023-05-15T10:30:16;17.00;99.90
49218;DHT22;35045;51.194;7.268;2023-05-15T10:32:43;17.10;99.90
49218;DHT22;35045;51.194;7.268;2023-05-15T10:35:10;17.10;99.90
49218;DHT22;35045;51.194;7.268;2023-05-15T10:37:40;17.30;99.90
49218;DHT22;35045;51.194;7.268;2023-05-15T10:40:08;17.50;99.90
49218;DHT22;35045;51.194;7.268;2023-05-15T10:42:36;17.50;99.90
49218;DHT22;35045;51.194;7.268;2023-05-15T10:45:03;17.70;99.90
49218;DHT22;35045;51.194;7.268;2023-05-15T10:47:30;17.60;99.90
49218;DHT22;35045;51.194;7.268;2023-05-15T10:50:00;17.80;99.90
49218;DHT22;35045;51.194;7.268;2023-05-15T10:52:26;17.90;99.90
49218;DHT22;35045;51.194;7.268;2023-05-15T10:54:53;17.70;99.90
49218;DHT22;35045;51.194;7.268;2023-05-15T10:57:22;17.80;99.90
49218;DHT22;35045;51.194;7.268;2023-05-15T10:59:49;17.90;99.90
49218;DHT22;35045;51.194;7.268;2023-05-15T11:02:23;18.00;99.90
49218;DHT22;35045;51.194;7.268;2023-05-15T11:07:20;18.20;99.90
49218;DHT22;35045;51.194;7.268;2023-05-15T11:09:49;18.30;99.90
49218;DHT22;35045;51.194;7.268;2023-05-15T11:12:15;18.30;99.90
49218;DHT22;35045;51.194;7.268;2023-05-15T11:14:43;18.40;99.90
49218;DHT22;35045;51.194;7.268;2023-05-15T11:17:31;18.50;99.90
49218;DHT22;35045;51.194;7.268;2023-05-15T11:19:58;18.70;99.90
49218;DHT22;35045;51.194;7.268;2023-05-15T11:22:30;18.60;99.40
49218;DHT22;35045;51.194;7.268;2023-05-15T11:30:17;18.30;99.90
49218;DHT22;35045;51.194;7.268;2023-05-15T11:35:27;18.70;99.70
49218;DHT22;35045;51.194;7.268;2023-05-15T11:37:56;18.90;99.70
49218;DHT22;35045;51.194;7.268;2023-05-15T11:43:22;19.00;99.20
49218;DHT22;35045;51.194;7.268;2023-05-15T11:45:58;19.10;98.50
49218;DHT22;35045;51.194;7.268;2023-05-15T11:51:04;19.50;98.10
49218;DHT22;35045;51.194;7.268;2023-05-15T11:53:32;19.60;98.00
49218;DHT22;35045;51.194;7.268;2023-05-15T11:55:58;19.70;97.60
49218;DHT22;35045;51.194;7.268;2023-05-15T11:58:25;19.50;97.20
49218;DHT22;35045;51.194;7.268;2023-05-15T12:00:52;19.80;97.50
49218;DHT22;35045;51.194;7.268;2023-05-15T12:03:26;19.80;97.00
49218;DHT22;35045;51.194;7.268;2023-05-15T12:05:56;20.20;97.50
49218;DHT22;35045;51.194;7.268;2023-05-15T12:08:24;20.40;97.70
49218;DHT22;35045;51.194;7.268;2023-05-15T12:10:50;20.60;96.40
49218;DHT22;35045;51.194;7.268;2023-05-15T12:13:17;20.50;95.60
49218;DHT22;35045;51.194;7.268;2023-05-15T12:15:44;20.40;95.60
49218;DHT22;35045;51.194;7.268;2023-05-15T12:18:11;20.10;95.20
49218;DHT22;35045;51.194;7.268;2023-05-15T12:20:38;20.20;95.90
49218;DHT22;35045;51.194;7.268;2023-05-15T12:23:06;20.40;95.50
49218;DHT22;35045;51.194;7.268;2023-05-15T12:25:34;20.50;95.30
49218;DHT22;35045;51.194;7.268;2023-05-15T12:28:02;20.60;95.40
49218;DHT22;35045;51.194;7.268;2023-05-15T12:30:30;20.90;94.90
49218;DHT22;35045;51.194;7.268;2023-05-15T12:33:08;21.00;93.90
49218;DHT22;35045;51.194;7.268;2023-05-15T12:35:42;21.50;93.20
49218;DHT22;35045;51.194;7.268;2023-05-15T12:38:13;21.60;93.40
49218;DHT22;35045;51.194;7.268;2023-05-15T12:40:43;21.60;92.90
49218;DHT22;35045;51.194;7.268;2023-05-15T12:43:13;21.30;93.50
49218;DHT22;35045;51.194;7.268;2023-05-15T12:45:40;20.60;92.60
49218;DHT22;35045;51.194;7.268;2023-05-15T12:48:06;20.40;93.30
49218;DHT22;35045;51.194;7.268;2023-05-15T12:50:33;20.50;92.80
49218;DHT22;35045;51.194;7.268;2023-05-15T12:53:02;20.80;92.20
49218;DHT22;35045;51.194;7.268;2023-05-15T12:55:33;21.10;92.00
49218;DHT22;35045;51.194;7.268;2023-05-15T12:58:04;21.00;91.80
49218;DHT22;35045;51.194;7.268;2023-05-15T13:00:35;21.40;91.10
49218;DHT22;35045;51.194;7.268;2023-05-15T13:03:03;21.70;89.20
49218;DHT22;35045;51.194;7.268;2023-05-15T13:05:33;21.80;89.00
49218;DHT22;35045;51.194;7.268;2023-05-15T13:08:03;21.40;89.50
49218;DHT22;35045;51.194;7.268;2023-05-15T13:10:35;21.60;90.20
49218;DHT22;35045;51.194;7.268;2023-05-15T13:13:02;21.90;85.50
49218;DHT22;35045;51.194;7.268;2023-05-15T13:15:36;22.20;86.80
49218;DHT22;35045;51.194;7.268;2023-05-15T13:18:03;21.90;84.70
49218;DHT22;35045;51.194;7.268;2023-05-15T13:20:41;22.00;85.40
49218;DHT22;35045;51.194;7.268;2023-05-15T13:23:08;22.20;82.90
49218;DHT22;35045;51.194;7.268;2023-05-15T13:25:35;22.60;82.80
49218;DHT22;35045;51.194;7.268;2023-05-15T13:28:03;22.50;83.50
49218;DHT22;35045;51.194;7.268;2023-05-15T13:30:31;22.80;82.80
49218;DHT22;35045;51.194;7.268;2023-05-15T13:32:58;23.20;83.60
49218;DHT22;35045;51.194;7.268;2023-05-15T13:35:25;23.50;83.50
49218;DHT22;35045;51.194;7.268;2023-05-15T13:37:51;23.90;81.90
49218;DHT22;35045;51.194;7.268;2023-05-15T13:40:17;24.00;82.30
49218;DHT22;35045;51.194;7.268;2023-05-15T13:42:44;23.30;79.90
49218;DHT22;35045;51.194;7.268;2023-05-15T13:45:11;22.60;82.40
49218;DHT22;35045;51.194;7.268;2023-05-15T13:47:38;22.20;82.70
49218;DHT22;35045;51.194;7.268;2023-05-15T13:50:06;21.60;82.50
49218;DHT22;35045;51.194;7.268;2023-05-15T13:52:32;21.30;83.50
49218;DHT22;35045;51.194;7.268;2023-05-15T13:54:58;21.20;84.10
49218;DHT22;35045;51.194;7.268;2023-05-15T13:57:25;20.80;82.70
49218;DHT22;35045;51.194;7.268;2023-05-15T13:59:51;21.30;83.50
49218;DHT22;35045;51.194;7.268;2023-05-15T14:02:17;21.30;82.60
49218;DHT22;35045;51.194;7.268;2023-05-15T14:04:45;21.10;81.20
49218;DHT22;35045;51.194;7.268;2023-05-15T14:07:11;21.30;83.20
49218;DHT22;35045;51.194;7.268;2023-05-15T14:09:38;21.90;82.40
49218;DHT22;35045;51.194;7.268;2023-05-15T14:12:04;22.40;78.10
49218;DHT22;35045;51.194;7.268;2023-05-15T14:14:30;22.60;78.10
49218;DHT22;35045;51.194;7.268;2023-05-15T14:16:56;22.90;77.40
49218;DHT22;35045;51.194;7.268;2023-05-15T14:19:22;23.40;78.20
49218;DHT22;35045;51.194;7.268;2023-05-15T14:21:48;24.00;76.60
49218;DHT22;35045;51.194;7.268;2023-05-15T14:24:14;24.70;75.60
49218;DHT22;35045;51.194;7.268;2023-05-15T14:26:40;24.90;74.00
49218;DHT22;35045;51.194;7.268;2023-05-15T14:29:09;24.60;74.20
49218;DHT22;35045;51.194;7.268;2023-05-15T14:31:35;24.70;73.60
49218;DHT22;35045;51.194;7.268;2023-05-15T14:34:02;24.60;73.70
49218;DHT22;35045;51.194;7.268;2023-05-15T14:36:28;24.20;73.00
49218;DHT22;35045;51.194;7.268;2023-05-15T14:38:55;23.40;74.40
49218;DHT22;35045;51.194;7.268;2023-05-15T14:41:21;22.70;77.20
49218;DHT22;35045;51.194;7.268;2023-05-15T14:43:47;22.50;78.60
49218;DHT22;35045;51.194;7.268;2023-05-15T14:46:13;23.40;77.60
49218;DHT22;35045;51.194;7.268;2023-05-15T14:48:39;24.40;78.00
49218;DHT22;35045;51.194;7.268;2023-05-15T14:51:06;25.10;76.50
49218;DHT22;35045;51.194;7.268;2023-05-15T14:53:32;25.70;73.50
49218;DHT22;35045;51.194;7.268;2023-05-15T14:55:59;26.10;71.50
49218;DHT22;35045;51.194;7.268;2023-05-15T14:58:25;27.10;70.30
49218;DHT22;35045;51.194;7.268;2023-05-15T15:00:51;27.90;68.30
49218;DHT22;35045;51.194;7.268;2023-05-15T15:03:18;28.10;67.10
49218;DHT22;35045;51.194;7.268;2023-05-15T15:05:45;27.60;67.70
49218;DHT22;35045;51.194;7.268;2023-05-15T15:08:11;26.30;69.20
49218;DHT22;35045;51.194;7.268;2023-05-15T15:10:38;25.40;72.10
49218;DHT22;35045;51.194;7.268;2023-05-15T15:13:05;25.50;72.50
49218;DHT22;35045;51.194;7.268;2023-05-15T15:15:33;24.20;74.00
49218;DHT22;35045;51.194;7.268;2023-05-15T15:17:59;24.10;75.00
49218;DHT22;35045;51.194;7.268;2023-05-15T15:20:26;24.70;75.10
49218;DHT22;35045;51.194;7.268;2023-05-15T15:22:53;24.80;74.20
49218;DHT22;35045;51.194;7.268;2023-05-15T15:25:20;24.40;75.30
49218;DHT22;35045;51.194;7.268;2023-05-15T15:27:47;24.50;76.10
49218;DHT22;35045;51.194;7.268;2023-05-15T15:30:14;24.40;75.70
49218;DHT22;35045;51.194;7.268;2023-05-15T15:32:42;24.10;75.70
49218;DHT22;35045;51.194;7.268;2023-05-15T15:35:08;24.70;75.30
49218;DHT22;35045;51.194;7.268;2023-05-15T15:37:35;24.90;74.90
49218;DHT22;35045;51.194;7.268;2023-05-15T15:40:03;25.40;73.90
49218;DHT22;35045;51.194;7.268;2023-05-15T15:42:33;26.00;73.20
49218;DHT22;35045;51.194;7.268;2023-05-15T15:44:59;25.30;74.30
49218;DHT22;35045;51.194;7.268;2023-05-15T15:47:26;24.40;75.80
49218;DHT22;35045;51.194;7.268;2023-05-15T15:49:54;23.40;78.60
49218;DHT22;35045;51.194;7.268;2023-05-15T15:52:20;22.40;81.50
49218;DHT22;35045;51.194;7.268;2023-05-15T15:54:47;21.90;84.30
49218;DHT22;35045;51.194;7.268;2023-05-15T15:57:14;21.30;84.60
49218;DHT22;35045;51.194;7.268;2023-05-15T15:59:40;20.90;86.00
49218;DHT22;35045;51.194;7.268;2023-05-15T16:02:07;20.50;87.70
49218;DHT22;35045;51.194;7.268;2023-05-15T16:04:37;20.30;88.40